sensor_id;sensor_type;location;lat;lon;timestamp;P1;durP1;ratioP1;P2;durP2;ratioP2
5977;SDS011;3015;51.390;12.256;2022-09-01T00:01:11;3.93;;;2.70;;
5977;SDS011;3015;51.390;12.256;2022-09-01T00:03:45;3.10;;;2.90;;
5977;SDS011;3015;51.390;12.256;2022-09-01T00:06:13;2.87;;;2.67;;
5977;SDS011;3015;51.390;12.256;2022-09-01T00:08:39;5.23;;;3.10;;
5977;SDS011;3015;51.390;12.256;2022-09-01T00:11:05;2.80;;;2.60;;
5977;SDS011;3015;51.390;12.256;2022-09-01T00:13:31;3.10;;;2.80;;
5977;SDS011;3015;51.390;12.256;2022-09-01T00:15:59;3.50;;;2.73;;
5977;SDS011;3015;51.390;12.256;2022-09-01T00:18:28;2.70;;;2.50;;
5977;SDS011;3015;51.390;12.256;2022-09-01T00:20:54;2.40;;;2.30;;
5977;SDS011;3015;51.390;12.256;2022-09-01T00:23:23;2.93;;;2.73;;
5977;SDS011;3015;51.390;12.256;2022-09-01T00:25:50;2.53;;;2.43;;
5977;SDS011;3015;51.390;12.256;2022-09-01T00:28:16;2.67;;;2.57;;
5977;SDS011;3015;51.390;12.256;2022-09-01T00:30:42;2.73;;;2.50;;
5977;SDS011;3015;51.390;12.256;2022-09-01T00:33:07;2.63;;;2.50;;
5977;SDS011;3015;51.390;12.256;2022-09-01T00:35:34;2.80;;;2.53;;
5977;SDS011;3015;51.390;12.256;2022-09-01T00:38:00;2.70;;;2.50;;
5977;SDS011;3015;51.390;12.256;2022-09-01T00:40:25;2.43;;;2.33;;
5977;SDS011;3015;51.390;12.256;2022-09-01T00:42:51;2.50;;;2.37;;
5977;SDS011;3015;51.390;12.256;2022-09-01T00:45:17;2.40;;;2.30;;
5977;SDS011;3015;51.390;12.256;2022-09-01T00:47:45;3.10;;;2.80;;
5977;SDS011;3015;51.390;12.256;2022-09-01T00:50:12;2.73;;;2.57;;
5977;SDS011;3015;51.390;12.256;2022-09-01T00:52:42;2.93;;;2.73;;
5977;SDS011;3015;51.390;12.256;2022-09-01T00:55:21;3.50;;;3.30;;
5977;SDS011;3015;51.390;12.256;2022-09-01T00:57:55;3.07;;;2.83;;
5977;SDS011;3015;51.390;12.256;2022-09-01T01:00:24;3.40;;;3.20;;
5977;SDS011;3015;51.390;12.256;2022-09-01T01:02:52;2.73;;;2.60;;
5977;SDS011;3015;51.390;12.256;2022-09-01T01:05:24;3.07;;;2.87;;
5977;SDS011;3015;51.390;12.256;2022-09-01T01:07:54;2.80;;;2.60;;
5977;SDS011;3015;51.390;12.256;2022-09-01T01:10:21;3.57;;;2.50;;
5977;SDS011;3015;51.390;12.256;2022-09-01T01:12:48;3.87;;;3.60;;
5977;SDS011;3015;51.390;12.256;2022-09-01T01:15:15;2.50;;;2.40;;
5977;SDS011;3015;51.390;12.256;2022-09-01T01:17:42;2.80;;;2.70;;
5977;SDS011;3015;51.390;12.256;2022-09-01T01:20:08;3.53;;;2.80;;
5977;SDS011;3015;51.390;12.256;2022-09-01T01:25:34;3.50;;;3.30;;
5977;SDS011;3015;51.390;12.256;2022-09-01T01:28:16;2.93;;;2.83;;
5977;SDS011;3015;51.390;12.256;2022-09-01T01:30:48;3.70;;;3.20;;
5977;SDS011;3015;51.390;12.256;2022-09-01T01:33:31;3.17;;;2.97;;
5977;SDS011;3015;51.390;12.256;2022-09-01T01:36:04;3.23;;;3.00;;
5977;SDS011;3015;51.390;12.256;2022-09-01T01:38:32;2.90;;;2.80;;
5977;SDS011;3015;51.390;12.256;2022-09-01T01:41:00;3.17;;;2.97;;
5977;SDS011;3015;51.390;12.256;2022-09-01T01:43:27;3.33;;;3.13;;
5977;SDS011;3015;51.390;12.256;2022-09-01T01:45:54;2.90;;;2.70;;
5977;SDS011;3015;51.390;12.256;2022-09-01T01:48:22;2.67;;;2.57;;
5977;SDS011;3015;51.390;12.256;2022-09-01T01:50:49;2.90;;;2.70;;
5977;SDS011;3015;51.390;12.256;2022-09-01T01:53:16;2.83;;;2.63;;
5977;SDS011;3015;51.390;12.256;2022-09-01T01:55:43;4.57;;;3.30;;
5977;SDS011;3015;51.390;12.256;2022-09-01T01:58:12;3.50;;;3.30;;
5977;SDS011;3015;51.390;12.256;2022-09-01T02:00:39;3.20;;;3.00;;
5977;SDS011;3015;51.390;12.256;2022-09-01T02:03:09;4.10;;;3.90;;
5977;SDS011;3015;51.390;12.256;2022-09-01T02:05:36;3.60;;;3.33;;
5977;SDS011;3015;51.390;12.256;2022-09-01T02:08:05;3.70;;;3.43;;
5977;SDS011;3015;51.390;12.256;2022-09-01T02:10:35;3.50;;;3.30;;
5977;SDS011;3015;51.390;12.256;2022-09-01T02:13:04;3.60;;;3.40;;
5977;SDS011;3015;51.390;12.256;2022-09-01T02:15:35;3.97;;;3.67;;
5977;SDS011;3015;51.390;12.256;2022-09-01T02:18:09;3.90;;;3.70;;
5977;SDS011;3015;51.390;12.256;2022-09-01T02:20:38;4.77;;;4.47;;
5977;SDS011;3015;51.390;12.256;2022-09-01T02:23:05;3.83;;;3.70;;
5977;SDS011;3015;51.390;12.256;2022-09-01T02:25:35;3.50;;;3.37;;
5977;SDS011;3015;51.390;12.256;2022-09-01T02:28:06;3.70;;;3.33;;
5977;SDS011;3015;51.390;12.256;2022-09-01T02:30:36;3.37;;;3.17;;
5977;SDS011;3015;51.390;12.256;2022-09-01T02:33:05;4.30;;;4.00;;
5977;SDS011;3015;51.390;12.256;2022-09-01T02:35:33;3.60;;;3.40;;
5977;SDS011;3015;51.390;12.256;2022-09-01T02:38:02;3.40;;;3.30;;
5977;SDS011;3015;51.390;12.256;2022-09-01T02:40:28;4.30;;;4.10;;
5977;SDS011;3015;51.390;12.256;2022-09-01T02:42:59;3.70;;;3.50;;
5977;SDS011;3015;51.390;12.256;2022-09-01T02:45:28;4.33;;;3.93;;
5977;SDS011;3015;51.390;12.256;2022-09-01T02:47:54;3.17;;;3.00;;
5977;SDS011;3015;51.390;12.256;2022-09-01T02:50:21;3.30;;;3.03;;
5977;SDS011;3015;51.390;12.256;2022-09-01T02:52:49;5.43;;;3.63;;
5977;SDS011;3015;51.390;12.256;2022-09-01T02:55:16;4.40;;;3.40;;
5977;SDS011;3015;51.390;12.256;2022-09-01T02:57:46;3.43;;;3.23;;
5977;SDS011;3015;51.390;12.256;2022-09-01T03:00:13;3.10;;;2.97;;
5977;SDS011;3015;51.390;12.256;2022-09-01T03:02:53;3.10;;;2.90;;
5977;SDS011;3015;51.390;12.256;2022-09-01T03:05:21;3.30;;;3.10;;
5977;SDS011;3015;51.390;12.256;2022-09-01T03:08:01;3.60;;;3.40;;
5977;SDS011;3015;51.390;12.256;2022-09-01T03:10:34;3.10;;;2.90;;
5977;SDS011;3015;51.390;12.256;2022-09-01T03:13:03;4.80;;;3.80;;
5977;SDS011;3015;51.390;12.256;2022-09-01T03:15:33;5.43;;;5.00;;
5977;SDS011;3015;51.390;12.256;2022-09-01T03:18:01;3.70;;;3.50;;
5977;SDS011;3015;51.390;12.256;2022-09-01T03:20:28;3.47;;;3.27;;
5977;SDS011;3015;51.390;12.256;2022-09-01T03:22:57;3.87;;;3.57;;
5977;SDS011;3015;51.390;12.256;2022-09-01T03:25:23;5.00;;;3.83;;
5977;SDS011;3015;51.390;12.256;2022-09-01T03:27:52;4.33;;;4.03;;
5977;SDS011;3015;51.390;12.256;2022-09-01T03:30:22;4.10;;;3.90;;
5977;SDS011;3015;51.390;12.256;2022-09-01T03:32:48;3.23;;;3.13;;
5977;SDS011;3015;51.390;12.256;2022-09-01T03:35:14;4.00;;;3.80;;
5977;SDS011;3015;51.390;12.256;2022-09-01T03:37:41;4.33;;;3.67;;
5977;SDS011;3015;51.390;12.256;2022-09-01T03:40:08;3.47;;;3.27;;
5977;SDS011;3015;51.390;12.256;2022-09-01T03:42:35;4.50;;;4.20;;
5977;SDS011;3015;51.390;12.256;2022-09-01T03:45:02;3.70;;;3.30;;
5977;SDS011;3015;51.390;12.256;2022-09-01T03:47:34;4.13;;;3.87;;
5977;SDS011;3015;51.390;12.256;2022-09-01T03:50:07;3.90;;;3.70;;
5977;SDS011;3015;51.390;12.256;2022-09-01T03:52:54;4.63;;;4.33;;
5977;SDS011;3015;51.390;12.256;2022-09-01T03:55:24;4.57;;;4.20;;
5977;SDS011;3015;51.390;12.256;2022-09-01T03:57:54;3.70;;;3.50;;
5977;SDS011;3015;51.390;12.256;2022-09-01T04:00:26;3.60;;;3.50;;
5977;SDS011;3015;51.390;12.256;2022-09-01T04:02:55;4.13;;;3.93;;
5977;SDS011;3015;51.390;12.256;2022-09-01T04:05:23;4.57;;;4.27;;
5977;SDS011;3015;51.390;12.256;2022-09-01T04:07:53;4.20;;;4.00;;
5977;SDS011;3015;51.390;12.256;2022-09-01T04:10:21;3.90;;;3.70;;
5977;SDS011;3015;51.390;12.256;2022-09-01T04:12:47;4.73;;;3.70;;
5977;SDS011;3015;51.390;12.256;2022-09-01T04:15:13;4.57;;;4.23;;
5977;SDS011;3015;51.390;12.256;2022-09-01T04:17:41;3.90;;;3.70;;
5977;SDS011;3015;51.390;12.256;2022-09-01T04:20:33;5.37;;;4.47;;
5977;SDS011;3015;51.390;12.256;2022-09-01T04:23:22;4.40;;;4.00;;
5977;SDS011;3015;51.390;12.256;2022-09-01T04:26:05;4.93;;;4.13;;
5977;SDS011;3015;51.390;12.256;2022-09-01T04:28:34;4.53;;;3.80;;
5977;SDS011;3015;51.390;12.256;2022-09-01T04:31:02;6.40;;;5.40;;
5977;SDS011;3015;51.390;12.256;2022-09-01T04:33:32;6.37;;;5.00;;
5977;SDS011;3015;51.390;12.256;2022-09-01T04:36:11;8.43;;;6.73;;
5977;SDS011;3015;51.390;12.256;2022-09-01T04:38:43;5.97;;;5.47;;
5977;SDS011;3015;51.390;12.256;2022-09-01T04:41:09;12.30;;;7.27;;
5977;SDS011;3015;51.390;12.256;2022-09-01T04:43:40;10.20;;;5.97;;
5977;SDS011;3015;51.390;12.256;2022-09-01T04:46:06;8.90;;;6.00;;
5977;SDS011;3015;51.390;12.256;2022-09-01T04:48:31;17.07;;;7.77;;
5977;SDS011;3015;51.390;12.256;2022-09-01T04:50:59;6.00;;;5.00;;
5977;SDS011;3015;51.390;12.256;2022-09-01T04:53:25;9.23;;;4.80;;
5977;SDS011;3015;51.390;12.256;2022-09-01T04:55:51;10.97;;;5.70;;
5977;SDS011;3015;51.390;12.256;2022-09-01T04:58:18;6.35;;;4.90;;
5977;SDS011;3015;51.390;12.256;2022-09-01T05:00:45;8.10;;;5.67;;
5977;SDS011;3015;51.390;12.256;2022-09-01T05:03:13;5.07;;;4.23;;
5977;SDS011;3015;51.390;12.256;2022-09-01T05:05:40;6.10;;;5.50;;
5977;SDS011;3015;51.390;12.256;2022-09-01T05:08:12;7.80;;;4.70;;
5977;SDS011;3015;51.390;12.256;2022-09-01T05:10:45;5.00;;;4.50;;
5977;SDS011;3015;51.390;12.256;2022-09-01T05:13:14;5.97;;;5.37;;
5977;SDS011;3015;51.390;12.256;2022-09-01T05:15:42;5.33;;;4.70;;
5977;SDS011;3015;51.390;12.256;2022-09-01T05:18:12;4.82;;;4.32;;
5977;SDS011;3015;51.390;12.256;2022-09-01T05:20:39;5.20;;;4.10;;
5977;SDS011;3015;51.390;12.256;2022-09-01T05:23:10;5.57;;;4.50;;
5977;SDS011;3015;51.390;12.256;2022-09-01T05:25:40;5.07;;;4.67;;
5977;SDS011;3015;51.390;12.256;2022-09-01T05:28:08;9.63;;;4.30;;
5977;SDS011;3015;51.390;12.256;2022-09-01T05:30:36;5.03;;;4.60;;
5977;SDS011;3015;51.390;12.256;2022-09-01T05:33:04;7.03;;;5.07;;
5977;SDS011;3015;51.390;12.256;2022-09-01T05:35:38;5.10;;;4.47;;
5977;SDS011;3015;51.390;12.256;2022-09-01T05:38:08;6.13;;;5.00;;
5977;SDS011;3015;51.390;12.256;2022-09-01T05:40:37;7.80;;;4.97;;
5977;SDS011;3015;51.390;12.256;2022-09-01T05:43:11;5.40;;;4.90;;
5977;SDS011;3015;51.390;12.256;2022-09-01T05:45:41;5.67;;;4.60;;
5977;SDS011;3015;51.390;12.256;2022-09-01T05:48:08;5.83;;;4.47;;
5977;SDS011;3015;51.390;12.256;2022-09-01T05:50:38;5.90;;;4.90;;
5977;SDS011;3015;51.390;12.256;2022-09-01T05:53:06;5.87;;;4.90;;
5977;SDS011;3015;51.390;12.256;2022-09-01T05:55:39;4.50;;;4.10;;
5977;SDS011;3015;51.390;12.256;2022-09-01T05:58:07;5.43;;;4.43;;
5977;SDS011;3015;51.390;12.256;2022-09-01T06:00:42;4.53;;;4.20;;
5977;SDS011;3015;51.390;12.256;2022-09-01T06:03:13;4.60;;;3.90;;
5977;SDS011;3015;51.390;12.256;2022-09-01T06:05:40;4.27;;;4.00;;
5977;SDS011;3015;51.390;12.256;2022-09-01T06:08:07;4.00;;;3.80;;
5977;SDS011;3015;51.390;12.256;2022-09-01T06:10:37;8.27;;;4.90;;
5977;SDS011;3015;51.390;12.256;2022-09-01T06:13:08;4.77;;;3.77;;
5977;SDS011;3015;51.390;12.256;2022-09-01T06:15:34;5.70;;;3.70;;
5977;SDS011;3015;51.390;12.256;2022-09-01T06:18:04;4.20;;;3.63;;
5977;SDS011;3015;51.390;12.256;2022-09-01T06:20:31;4.70;;;3.60;;
5977;SDS011;3015;51.390;12.256;2022-09-01T06:22:57;4.20;;;3.90;;
5977;SDS011;3015;51.390;12.256;2022-09-01T06:25:23;5.50;;;4.07;;
5977;SDS011;3015;51.390;12.256;2022-09-01T06:27:54;6.13;;;3.10;;
5977;SDS011;3015;51.390;12.256;2022-09-01T06:30:21;3.63;;;3.33;;
5977;SDS011;3015;51.390;12.256;2022-09-01T06:32:49;3.90;;;3.60;;
5977;SDS011;3015;51.390;12.256;2022-09-01T06:35:15;3.87;;;3.57;;
5977;SDS011;3015;51.390;12.256;2022-09-01T06:37:42;3.90;;;3.10;;
5977;SDS011;3015;51.390;12.256;2022-09-01T06:40:09;3.60;;;3.40;;
5977;SDS011;3015;51.390;12.256;2022-09-01T06:42:44;3.43;;;3.17;;
5977;SDS011;3015;51.390;12.256;2022-09-01T06:45:12;3.77;;;3.47;;
5977;SDS011;3015;51.390;12.256;2022-09-01T06:47:42;3.53;;;3.23;;
5977;SDS011;3015;51.390;12.256;2022-09-01T06:50:13;2.80;;;2.70;;
5977;SDS011;3015;51.390;12.256;2022-09-01T06:52:40;3.43;;;3.23;;
5977;SDS011;3015;51.390;12.256;2022-09-01T06:55:08;9.90;;;3.43;;
5977;SDS011;3015;51.390;12.256;2022-09-01T06:57:35;2.93;;;2.83;;
5977;SDS011;3015;51.390;12.256;2022-09-01T07:00:03;3.17;;;2.97;;
5977;SDS011;3015;51.390;12.256;2022-09-01T07:02:41;3.10;;;2.90;;
5977;SDS011;3015;51.390;12.256;2022-09-01T07:05:17;3.40;;;3.20;;
5977;SDS011;3015;51.390;12.256;2022-09-01T07:07:46;3.20;;;3.10;;
5977;SDS011;3015;51.390;12.256;2022-09-01T07:10:15;3.30;;;3.10;;
5977;SDS011;3015;51.390;12.256;2022-09-01T07:12:47;3.13;;;3.03;;
5977;SDS011;3015;51.390;12.256;2022-09-01T07:15:13;4.03;;;3.37;;
5977;SDS011;3015;51.390;12.256;2022-09-01T07:17:41;4.10;;;3.43;;
5977;SDS011;3015;51.390;12.256;2022-09-01T07:20:13;3.07;;;2.87;;
5977;SDS011;3015;51.390;12.256;2022-09-01T07:22:39;3.27;;;2.87;;
5977;SDS011;3015;51.390;12.256;2022-09-01T07:25:05;2.93;;;2.73;;
5977;SDS011;3015;51.390;12.256;2022-09-01T07:27:34;3.80;;;2.73;;
5977;SDS011;3015;51.390;12.256;2022-09-01T07:30:00;2.90;;;2.70;;
5977;SDS011;3015;51.390;12.256;2022-09-01T07:32:27;3.30;;;3.10;;
5977;SDS011;3015;51.390;12.256;2022-09-01T07:34:54;2.30;;;2.10;;
5977;SDS011;3015;51.390;12.256;2022-09-01T07:37:20;2.90;;;2.70;;
5977;SDS011;3015;51.390;12.256;2022-09-01T07:39:47;5.53;;;2.63;;
5977;SDS011;3015;51.390;12.256;2022-09-01T07:42:13;2.40;;;2.27;;
5977;SDS011;3015;51.390;12.256;2022-09-01T07:44:41;2.43;;;2.10;;
5977;SDS011;3015;51.390;12.256;2022-09-01T07:47:08;2.57;;;2.37;;
5977;SDS011;3015;51.390;12.256;2022-09-01T07:49:35;2.47;;;2.30;;
5977;SDS011;3015;51.390;12.256;2022-09-01T07:52:02;2.83;;;2.27;;
5977;SDS011;3015;51.390;12.256;2022-09-01T07:54:29;2.87;;;2.20;;
5977;SDS011;3015;51.390;12.256;2022-09-01T07:56:55;3.43;;;2.20;;
5977;SDS011;3015;51.390;12.256;2022-09-01T07:59:21;2.03;;;1.93;;
5977;SDS011;3015;51.390;12.256;2022-09-01T08:01:46;2.20;;;2.10;;
5977;SDS011;3015;51.390;12.256;2022-09-01T08:04:13;2.30;;;2.20;;
5977;SDS011;3015;51.390;12.256;2022-09-01T08:06:39;3.80;;;2.57;;
5977;SDS011;3015;51.390;12.256;2022-09-01T08:09:05;10.23;;;2.60;;
5977;SDS011;3015;51.390;12.256;2022-09-01T08:11:31;2.53;;;2.43;;
5977;SDS011;3015;51.390;12.256;2022-09-01T08:13:58;2.50;;;2.30;;
5977;SDS011;3015;51.390;12.256;2022-09-01T08:16:25;4.80;;;2.40;;
5977;SDS011;3015;51.390;12.256;2022-09-01T08:18:52;3.07;;;2.80;;
5977;SDS011;3015;51.390;12.256;2022-09-01T08:21:18;2.47;;;2.33;;
5977;SDS011;3015;51.390;12.256;2022-09-01T08:23:46;2.73;;;2.53;;
5977;SDS011;3015;51.390;12.256;2022-09-01T08:26:13;3.57;;;2.30;;
5977;SDS011;3015;51.390;12.256;2022-09-01T08:28:40;2.40;;;2.30;;
5977;SDS011;3015;51.390;12.256;2022-09-01T08:31:07;2.70;;;2.50;;
5977;SDS011;3015;51.390;12.256;2022-09-01T08:33:34;2.67;;;2.47;;
5977;SDS011;3015;51.390;12.256;2022-09-01T08:36:06;3.47;;;2.57;;
5977;SDS011;3015;51.390;12.256;2022-09-01T08:38:33;4.03;;;2.30;;
5977;SDS011;3015;51.390;12.256;2022-09-01T08:40:59;3.23;;;2.53;;
5977;SDS011;3015;51.390;12.256;2022-09-01T08:43:33;2.90;;;2.70;;
5977;SDS011;3015;51.390;12.256;2022-09-01T08:48:50;2.63;;;2.43;;
5977;SDS011;3015;51.390;12.256;2022-09-01T08:51:36;3.17;;;2.33;;
5977;SDS011;3015;51.390;12.256;2022-09-01T08:54:38;2.37;;;2.17;;
5977;SDS011;3015;51.390;12.256;2022-09-01T08:57:10;2.53;;;2.30;;
5977;SDS011;3015;51.390;12.256;2022-09-01T08:59:40;5.23;;;2.70;;
5977;SDS011;3015;51.390;12.256;2022-09-01T09:07:51;3.23;;;2.93;;
5977;SDS011;3015;51.390;12.256;2022-09-01T09:10:36;4.23;;;2.87;;
5977;SDS011;3015;51.390;12.256;2022-09-01T09:16:34;3.30;;;3.03;;
5977;SDS011;3015;51.390;12.256;2022-09-01T09:21:59;2.70;;;2.60;;
5977;SDS011;3015;51.390;12.256;2022-09-01T09:27:18;3.20;;;3.00;;
5977;SDS011;3015;51.390;12.256;2022-09-01T09:29:49;3.00;;;2.70;;
5977;SDS011;3015;51.390;12.256;2022-09-01T09:32:17;2.77;;;2.57;;
5977;SDS011;3015;51.390;12.256;2022-09-01T09:34:44;2.57;;;2.37;;
5977;SDS011;3015;51.390;12.256;2022-09-01T09:37:21;2.30;;;2.20;;
5977;SDS011;3015;51.390;12.256;2022-09-01T09:42:28;2.77;;;2.57;;
5977;SDS011;3015;51.390;12.256;2022-09-01T09:44:54;2.60;;;2.20;;
5977;SDS011;3015;51.390;12.256;2022-09-01T09:47:40;2.00;;;1.90;;
5977;SDS011;3015;51.390;12.256;2022-09-01T09:50:15;2.37;;;2.27;;
5977;SDS011;3015;51.390;12.256;2022-09-01T09:52:51;3.10;;;2.40;;
5977;SDS011;3015;51.390;12.256;2022-09-01T09:55:33;2.07;;;1.97;;
5977;SDS011;3015;51.390;12.256;2022-09-01T09:57:59;2.43;;;2.30;;
5977;SDS011;3015;51.390;12.256;2022-09-01T10:00:33;2.73;;;2.63;;
5977;SDS011;3015;51.390;12.256;2022-09-01T10:03:04;2.43;;;2.33;;
5977;SDS011;3015;51.390;12.256;2022-09-01T10:05:36;2.80;;;2.10;;
5977;SDS011;3015;51.390;12.256;2022-09-01T10:08:03;2.90;;;2.70;;
5977;SDS011;3015;51.390;12.256;2022-09-01T10:10:40;2.50;;;2.40;;
5977;SDS011;3015;51.390;12.256;2022-09-01T10:13:18;2.60;;;2.43;;
5977;SDS011;3015;51.390;12.256;2022-09-01T10:15:48;2.73;;;2.10;;
5977;SDS011;3015;51.390;12.256;2022-09-01T10:18:29;2.57;;;2.37;;
5977;SDS011;3015;51.390;12.256;2022-09-01T10:23:48;2.63;;;2.37;;
5977;SDS011;3015;51.390;12.256;2022-09-01T10:31:31;2.03;;;1.93;;
5977;SDS011;3015;51.390;12.256;2022-09-01T10:33:58;2.60;;;2.40;;
5977;SDS011;3015;51.390;12.256;2022-09-01T10:36:26;2.23;;;2.13;;
5977;SDS011;3015;51.390;12.256;2022-09-01T10:38:53;2.23;;;2.13;;
5977;SDS011;3015;51.390;12.256;2022-09-01T10:46:56;1.80;;;1.70;;
5977;SDS011;3015;51.390;12.256;2022-09-01T10:49:55;1.80;;;1.70;;
5977;SDS011;3015;51.390;12.256;2022-09-01T10:55:07;2.37;;;1.80;;
5977;SDS011;3015;51.390;12.256;2022-09-01T11:00:43;1.73;;;1.63;;
5977;SDS011;3015;51.390;12.256;2022-09-01T11:13:33;1.90;;;1.80;;
5977;SDS011;3015;51.390;12.256;2022-09-01T11:18:54;1.60;;;1.50;;
5977;SDS011;3015;51.390;12.256;2022-09-01T11:21:27;1.80;;;1.70;;
5977;SDS011;3015;51.390;12.256;2022-09-01T11:26:57;1.63;;;1.53;;
5977;SDS011;3015;51.390;12.256;2022-09-01T11:32:27;1.70;;;1.60;;
5977;SDS011;3015;51.390;12.256;2022-09-01T11:34:59;1.63;;;1.53;;
5977;SDS011;3015;51.390;12.256;2022-09-01T11:37:38;1.93;;;1.70;;
5977;SDS011;3015;51.390;12.256;2022-09-01T11:40:05;1.70;;;1.60;;
5977;SDS011;3015;51.390;12.256;2022-09-01T11:45:15;2.07;;;1.57;;
5977;SDS011;3015;51.390;12.256;2022-09-01T11:47:44;1.53;;;1.50;;
5977;SDS011;3015;51.390;12.256;2022-09-01T11:50:19;1.57;;;1.47;;
5977;SDS011;3015;51.390;12.256;2022-09-01T11:52:55;1.93;;;1.80;;
5977;SDS011;3015;51.390;12.256;2022-09-01T11:55:27;1.60;;;1.50;;
5977;SDS011;3015;51.390;12.256;2022-09-01T11:58:01;1.90;;;1.80;;
5977;SDS011;3015;51.390;12.256;2022-09-01T12:00:35;1.40;;;1.40;;
5977;SDS011;3015;51.390;12.256;2022-09-01T12:03:04;1.53;;;1.43;;
5977;SDS011;3015;51.390;12.256;2022-09-01T12:05:45;1.77;;;1.67;;
5977;SDS011;3015;51.390;12.256;2022-09-01T12:08:14;1.50;;;1.40;;
5977;SDS011;3015;51.390;12.256;2022-09-01T12:10:42;2.13;;;1.97;;
5977;SDS011;3015;51.390;12.256;2022-09-01T12:13:10;4.60;;;2.43;;
5977;SDS011;3015;51.390;12.256;2022-09-01T12:15:42;2.60;;;1.60;;
5977;SDS011;3015;51.390;12.256;2022-09-01T12:18:13;1.70;;;1.60;;
5977;SDS011;3015;51.390;12.256;2022-09-01T12:20:51;1.73;;;1.57;;
5977;SDS011;3015;51.390;12.256;2022-09-01T12:23:38;2.03;;;1.30;;
5977;SDS011;3015;51.390;12.256;2022-09-01T12:28:35;1.20;;;1.20;;
5977;SDS011;3015;51.390;12.256;2022-09-01T12:31:07;1.70;;;1.60;;
5977;SDS011;3015;51.390;12.256;2022-09-01T12:33:38;1.60;;;1.50;;
5977;SDS011;3015;51.390;12.256;2022-09-01T12:39:17;1.70;;;1.60;;
5977;SDS011;3015;51.390;12.256;2022-09-01T12:42:00;1.93;;;1.83;;
5977;SDS011;3015;51.390;12.256;2022-09-01T12:47:10;2.30;;;1.50;;
5977;SDS011;3015;51.390;12.256;2022-09-01T12:49:55;1.20;;;1.20;;
5977;SDS011;3015;51.390;12.256;2022-09-01T12:52:22;1.37;;;1.23;;
5977;SDS011;3015;51.390;12.256;2022-09-01T12:57:33;1.53;;;1.43;;
5977;SDS011;3015;51.390;12.256;2022-09-01T13:02:46;1.50;;;1.40;;
5977;SDS011;3015;51.390;12.256;2022-09-01T13:08:03;1.70;;;1.60;;
5977;SDS011;3015;51.390;12.256;2022-09-01T13:10:42;1.30;;;1.30;;
5977;SDS011;3015;51.390;12.256;2022-09-01T13:13:09;1.67;;;1.57;;
5977;SDS011;3015;51.390;12.256;2022-09-01T13:15:36;1.30;;;1.20;;
5977;SDS011;3015;51.390;12.256;2022-09-01T13:18:04;2.00;;;1.40;;
5977;SDS011;3015;51.390;12.256;2022-09-01T13:20:30;1.50;;;1.40;;
5977;SDS011;3015;51.390;12.256;2022-09-01T13:22:56;1.57;;;1.47;;
5977;SDS011;3015;51.390;12.256;2022-09-01T13:25:21;1.30;;;1.20;;
5977;SDS011;3015;51.390;12.256;2022-09-01T13:27:48;1.30;;;1.30;;
5977;SDS011;3015;51.390;12.256;2022-09-01T13:30:14;1.13;;;1.13;;
5977;SDS011;3015;51.390;12.256;2022-09-01T13:32:42;1.70;;;1.60;;
5977;SDS011;3015;51.390;12.256;2022-09-01T13:35:09;1.53;;;1.33;;
5977;SDS011;3015;51.390;12.256;2022-09-01T13:37:35;1.20;;;1.20;;
5977;SDS011;3015;51.390;12.256;2022-09-01T13:40:02;1.50;;;1.40;;
5977;SDS011;3015;51.390;12.256;2022-09-01T13:42:31;1.50;;;1.40;;
5977;SDS011;3015;51.390;12.256;2022-09-01T13:44:56;1.33;;;1.23;;
5977;SDS011;3015;51.390;12.256;2022-09-01T13:47:22;1.70;;;1.60;;
5977;SDS011;3015;51.390;12.256;2022-09-01T13:49:48;1.63;;;1.40;;
5977;SDS011;3015;51.390;12.256;2022-09-01T13:52:14;1.33;;;1.33;;
5977;SDS011;3015;51.390;12.256;2022-09-01T13:54:40;1.47;;;1.40;;
5977;SDS011;3015;51.390;12.256;2022-09-01T13:57:08;3.33;;;1.43;;
5977;SDS011;3015;51.390;12.256;2022-09-01T13:59:35;1.40;;;1.30;;
5977;SDS011;3015;51.390;12.256;2022-09-01T14:02:01;1.70;;;1.60;;
5977;SDS011;3015;51.390;12.256;2022-09-01T14:04:27;3.17;;;1.57;;
5977;SDS011;3015;51.390;12.256;2022-09-01T14:06:53;1.60;;;1.50;;
5977;SDS011;3015;51.390;12.256;2022-09-01T14:09:19;1.60;;;1.50;;
5977;SDS011;3015;51.390;12.256;2022-09-01T14:11:45;1.60;;;1.50;;
5977;SDS011;3015;51.390;12.256;2022-09-01T14:14:10;2.10;;;1.80;;
5977;SDS011;3015;51.390;12.256;2022-09-01T14:16:36;1.73;;;1.60;;
5977;SDS011;3015;51.390;12.256;2022-09-01T14:19:02;1.60;;;1.40;;
5977;SDS011;3015;51.390;12.256;2022-09-01T14:21:28;1.67;;;1.50;;
5977;SDS011;3015;51.390;12.256;2022-09-01T14:23:53;1.70;;;1.60;;
5977;SDS011;3015;51.390;12.256;2022-09-01T14:26:19;2.50;;;1.33;;
5977;SDS011;3015;51.390;12.256;2022-09-01T14:28:45;1.30;;;1.20;;
5977;SDS011;3015;51.390;12.256;2022-09-01T14:31:13;1.30;;;1.20;;
5977;SDS011;3015;51.390;12.256;2022-09-01T14:33:40;2.93;;;1.67;;
5977;SDS011;3015;51.390;12.256;2022-09-01T14:36:14;1.20;;;1.20;;
5977;SDS011;3015;51.390;12.256;2022-09-01T14:38:42;3.20;;;1.70;;
5977;SDS011;3015;51.390;12.256;2022-09-01T14:41:07;2.10;;;1.70;;
5977;SDS011;3015;51.390;12.256;2022-09-01T14:43:33;1.57;;;1.33;;
5977;SDS011;3015;51.390;12.256;2022-09-01T14:46:05;1.37;;;1.30;;
5977;SDS011;3015;51.390;12.256;2022-09-01T14:48:34;1.40;;;1.40;;
5977;SDS011;3015;51.390;12.256;2022-09-01T14:51:00;1.87;;;1.40;;
5977;SDS011;3015;51.390;12.256;2022-09-01T14:53:29;1.33;;;1.23;;
5977;SDS011;3015;51.390;12.256;2022-09-01T14:55:56;1.40;;;1.30;;
5977;SDS011;3015;51.390;12.256;2022-09-01T14:58:23;1.87;;;1.70;;
5977;SDS011;3015;51.390;12.256;2022-09-01T15:00:50;1.30;;;1.30;;
5977;SDS011;3015;51.390;12.256;2022-09-01T15:03:16;1.37;;;1.37;;
5977;SDS011;3015;51.390;12.256;2022-09-01T15:05:42;1.20;;;1.20;;
5977;SDS011;3015;51.390;12.256;2022-09-01T15:08:11;1.50;;;1.40;;
5977;SDS011;3015;51.390;12.256;2022-09-01T15:10:37;2.30;;;1.50;;
5977;SDS011;3015;51.390;12.256;2022-09-01T15:13:04;1.30;;;1.30;;
5977;SDS011;3015;51.390;12.256;2022-09-01T15:15:30;1.57;;;1.47;;
5977;SDS011;3015;51.390;12.256;2022-09-01T15:17:57;1.70;;;1.60;;
5977;SDS011;3015;51.390;12.256;2022-09-01T15:20:23;1.60;;;1.50;;
5977;SDS011;3015;51.390;12.256;2022-09-01T15:23:08;1.50;;;1.40;;
5977;SDS011;3015;51.390;12.256;2022-09-01T15:25:35;1.67;;;1.40;;
5977;SDS011;3015;51.390;12.256;2022-09-01T15:28:01;1.50;;;1.40;;
5977;SDS011;3015;51.390;12.256;2022-09-01T15:30:27;1.83;;;1.50;;
5977;SDS011;3015;51.390;12.256;2022-09-01T15:32:53;1.57;;;1.47;;
5977;SDS011;3015;51.390;12.256;2022-09-01T15:35:19;1.53;;;1.43;;
5977;SDS011;3015;51.390;12.256;2022-09-01T15:37:46;1.67;;;1.57;;
5977;SDS011;3015;51.390;12.256;2022-09-01T15:40:13;1.80;;;1.50;;
5977;SDS011;3015;51.390;12.256;2022-09-01T15:42:39;1.60;;;1.43;;
5977;SDS011;3015;51.390;12.256;2022-09-01T15:45:06;1.40;;;1.30;;
5977;SDS011;3015;51.390;12.256;2022-09-01T15:47:34;1.50;;;1.40;;
5977;SDS011;3015;51.390;12.256;2022-09-01T15:50:01;2.30;;;1.60;;
5977;SDS011;3015;51.390;12.256;2022-09-01T15:52:29;1.40;;;1.30;;
5977;SDS011;3015;51.390;12.256;2022-09-01T15:54:54;1.20;;;1.20;;
5977;SDS011;3015;51.390;12.256;2022-09-01T15:57:20;1.70;;;1.37;;
5977;SDS011;3015;51.390;12.256;2022-09-01T15:59:45;2.07;;;1.60;;
5977;SDS011;3015;51.390;12.256;2022-09-01T16:02:11;2.23;;;1.60;;
5977;SDS011;3015;51.390;12.256;2022-09-01T16:04:41;2.60;;;1.73;;
5977;SDS011;3015;51.390;12.256;2022-09-01T16:07:07;3.77;;;1.67;;
5977;SDS011;3015;51.390;12.256;2022-09-01T16:09:33;1.50;;;1.50;;
5977;SDS011;3015;51.390;12.256;2022-09-01T16:12:00;2.60;;;1.83;;
5977;SDS011;3015;51.390;12.256;2022-09-01T16:14:26;1.57;;;1.47;;
5977;SDS011;3015;51.390;12.256;2022-09-01T16:16:54;3.23;;;1.87;;
5977;SDS011;3015;51.390;12.256;2022-09-01T16:20:05;1.80;;;1.60;;
5977;SDS011;3015;51.390;12.256;2022-09-01T16:22:35;1.60;;;1.50;;
5977;SDS011;3015;51.390;12.256;2022-09-01T16:25:16;1.60;;;1.50;;
5977;SDS011;3015;51.390;12.256;2022-09-01T16:27:48;1.63;;;1.50;;
5977;SDS011;3015;51.390;12.256;2022-09-01T16:30:20;1.90;;;1.53;;
5977;SDS011;3015;51.390;12.256;2022-09-01T16:32:48;1.63;;;1.53;;
5977;SDS011;3015;51.390;12.256;2022-09-01T16:35:14;1.57;;;1.47;;